createdAt,value
2022-09-12T00:02:16.030Z,26.70
2022-09-12T00:04:42.715Z,25.38
2022-09-12T00:07:09.550Z,29.05
2022-09-12T00:09:36.188Z,24.30
2022-09-12T00:12:02.851Z,28.40
2022-09-12T00:14:29.547Z,25.67
2022-09-12T00:17:00.167Z,26.63
2022-09-12T00:19:28.730Z,24.23
2022-09-12T00:21:55.564Z,25.58
2022-09-12T00:24:22.406Z,26.23
2022-09-12T00:26:49.138Z,25.00
2022-09-12T00:29:17.911Z,21.02
2022-09-12T00:31:44.811Z,25.67
2022-09-12T00:34:11.781Z,26.17
2022-09-12T00:36:39.240Z,23.67
2022-09-12T00:39:06.697Z,24.85
2022-09-12T00:41:38.930Z,25.88
2022-09-12T00:44:24.154Z,25.85
2022-09-12T00:47:14.175Z,27.92
2022-09-12T00:49:52.060Z,23.77
2022-09-12T00:52:34.313Z,29.63
2022-09-12T00:55:25.066Z,24.97
2022-09-12T00:58:04.361Z,26.85
2022-09-12T01:00:30.972Z,25.75
2022-09-12T01:03:02.969Z,28.20
2022-09-12T01:05:30.902Z,27.42
2022-09-12T01:07:57.552Z,30.23
2022-09-12T01:10:24.712Z,23.45
2022-09-12T01:12:51.373Z,40.10
2022-09-12T01:15:18.208Z,24.75
2022-09-12T01:18:11.377Z,24.85
2022-09-12T01:20:46.324Z,24.90
2022-09-12T01:23:39.960Z,24.00
2022-09-12T01:26:46.119Z,28.48
2022-09-12T01:29:40.697Z,27.77
2022-09-12T01:32:10.027Z,27.85
2022-09-12T01:34:54.311Z,25.90
2022-09-12T01:37:34.123Z,27.38
2022-09-12T01:40:01.321Z,27.67
2022-09-12T01:42:33.734Z,31.20
2022-09-12T01:45:10.342Z,23.73
2022-09-12T01:47:41.888Z,23.73
2022-09-12T01:50:17.983Z,28.27
2022-09-12T01:52:52.200Z,30.42
2022-09-12T01:55:28.612Z,30.42
2022-09-12T01:58:26.889Z,28.10
2022-09-12T02:01:11.349Z,26.58
2022-09-12T02:03:45.008Z,26.77
2022-09-12T02:06:23.651Z,24.17
2022-09-12T02:08:55.888Z,27.25
2022-09-12T02:16:11.980Z,20.90
2022-09-12T02:18:45.721Z,26.35
2022-09-12T02:21:13.065Z,27.02
2022-09-12T02:24:09.871Z,25.88
2022-09-12T02:26:43.871Z,23.58
2022-09-12T02:29:10.664Z,29.42
2022-09-12T02:31:40.652Z,27.95
2022-09-12T02:34:22.586Z,26.38
2022-09-12T02:37:01.011Z,28.75
2022-09-12T02:39:28.003Z,29.20
2022-09-12T02:41:55.738Z,34.75
2022-09-12T02:44:24.591Z,34.08
2022-09-12T02:46:54.528Z,24.55
2022-09-12T02:49:21.432Z,26.10
2022-09-12T02:51:48.757Z,50.95
2022-09-12T02:54:40.125Z,25.30
2022-09-12T02:57:19.521Z,30.98
2022-09-12T02:59:50.613Z,24.27
2022-09-12T03:02:25.023Z,30.70
2022-09-12T03:05:08.757Z,27.17
2022-09-12T03:07:54.517Z,38.25
2022-09-12T03:10:30.959Z,29.33
2022-09-12T03:13:21.750Z,28.13
2022-09-12T03:16:00.346Z,28.45
2022-09-12T03:19:19.268Z,36.38
2022-09-12T03:22:13.398Z,29.30
2022-09-12T03:24:58.144Z,26.67
2022-09-12T03:27:29.663Z,26.05
2022-09-12T03:29:57.543Z,24.38
2022-09-12T03:32:44.486Z,26.27
2022-09-12T03:35:11.876Z,24.20
2022-09-12T03:42:08.823Z,23.65
2022-09-12T03:45:53.051Z,21.38
2022-09-12T03:48:19.708Z,21.30
2022-09-12T03:50:46.579Z,23.80
2022-09-12T03:53:41.603Z,21.92
2022-09-12T03:56:10.042Z,21.55
2022-09-12T03:58:37.243Z,27.08
2022-09-12T04:01:12.724Z,28.40
2022-09-12T04:03:43.222Z,24.92
2022-09-12T04:06:14.644Z,23.48
2022-09-12T04:08:43.012Z,26.80
2022-09-12T04:11:13.142Z,26.42
2022-09-12T04:13:41.493Z,21.65
2022-09-12T04:16:08.667Z,25.40
2022-09-12T04:18:36.490Z,25.27
2022-09-12T04:21:11.941Z,33.05
2022-09-12T04:23:38.645Z,26.27
2022-09-12T04:26:06.446Z,30.83
2022-09-12T04:28:34.419Z,36.20
2022-09-12T04:31:10.005Z,38.75
2022-09-12T04:33:36.959Z,31.88
2022-09-12T04:36:08.781Z,31.48
2022-09-12T04:38:35.938Z,31.88
2022-09-12T04:41:19.852Z,31.45
2022-09-12T04:43:47.681Z,29.85
2022-09-12T04:46:16.891Z,42.10
2022-09-12T04:48:43.893Z,51.47
2022-09-12T04:51:14.381Z,55.72
2022-09-12T04:53:41.994Z,63.95
2022-09-12T04:56:10.606Z,58.40
2022-09-12T04:58:38.180Z,57.53
2022-09-12T05:01:09.495Z,61.00
2022-09-12T05:03:38.923Z,69.70
2022-09-12T05:06:07.661Z,49.78
2022-09-12T05:08:37.661Z,37.70
2022-09-12T05:11:06.813Z,37.90
2022-09-12T05:13:33.913Z,39.15
2022-09-12T05:16:02.126Z,35.78
2022-09-12T05:18:29.083Z,37.40
2022-09-12T05:21:02.095Z,39.22
2022-09-12T05:25:57.521Z,28.50
2022-09-12T05:28:25.865Z,33.50
2022-09-12T05:31:13.065Z,28.27
2022-09-12T05:33:41.462Z,28.70
2022-09-12T05:36:17.724Z,31.88
2022-09-12T05:38:45.128Z,32.70
2022-09-12T05:41:19.873Z,39.17
2022-09-12T05:43:57.430Z,35.45
2022-09-12T05:46:29.461Z,34.28
2022-09-12T05:48:58.281Z,36.65
2022-09-12T05:51:27.365Z,38.58
2022-09-12T05:53:59.867Z,30.67
2022-09-12T05:56:28.477Z,30.90
2022-09-12T05:59:01.033Z,35.63
2022-09-12T06:01:29.009Z,33.13
2022-09-12T06:04:00.623Z,29.48
2022-09-12T06:06:28.558Z,33.08
2022-09-12T06:08:58.775Z,33.88
2022-09-12T06:11:28.745Z,32.85
2022-09-12T06:13:56.851Z,30.73
2022-09-12T06:16:26.027Z,29.80
2022-09-12T06:18:57.817Z,29.52
2022-09-12T06:21:26.430Z,28.23
2022-09-12T06:23:56.911Z,32.90
2022-09-12T06:26:25.563Z,39.80
2022-09-12T06:28:53.890Z,41.10
2022-09-12T06:31:23.449Z,38.15
2022-09-12T06:33:51.894Z,41.42
2022-09-12T06:36:21.250Z,35.13
2022-09-12T06:38:51.157Z,44.25
2022-09-12T06:41:17.767Z,41.55
2022-09-12T06:43:44.358Z,41.30
2022-09-12T06:46:12.944Z,38.08
2022-09-12T06:48:46.768Z,40.92
2022-09-12T06:51:15.927Z,44.28
2022-09-12T06:53:44.197Z,38.00
2022-09-12T06:56:13.556Z,40.75
2022-09-12T06:58:40.974Z,38.45
2022-09-12T07:01:29.354Z,46.10
2022-09-12T07:04:00.237Z,43.15
2022-09-12T07:06:31.985Z,42.45
2022-09-12T07:09:00.014Z,40.28
2022-09-12T07:11:28.538Z,45.35
2022-09-12T07:13:56.436Z,42.88
2022-09-12T07:16:23.732Z,39.45
2022-09-12T07:18:51.920Z,42.65
2022-09-12T07:21:18.819Z,43.30
2022-09-12T07:23:45.576Z,37.15
2022-09-12T07:26:14.714Z,40.38
2022-09-12T07:28:41.639Z,45.97
2022-09-12T07:31:09.875Z,43.55
2022-09-12T07:33:38.279Z,45.70
2022-09-12T07:36:07.106Z,45.20
2022-09-12T07:38:33.989Z,38.17
2022-09-12T07:41:01.636Z,43.40
2022-09-12T07:43:28.346Z,42.78
2022-09-12T07:45:58.017Z,43.92
2022-09-12T07:48:24.998Z,42.22
2022-09-12T07:51:02.005Z,42.00
2022-09-12T07:53:32.915Z,43.00
2022-09-12T07:56:00.044Z,37.13
2022-09-12T07:58:26.806Z,48.80
2022-09-12T08:00:53.542Z,34.13
2022-09-12T08:03:21.134Z,42.70
2022-09-12T08:05:47.974Z,43.58
2022-09-12T08:08:15.198Z,44.15
2022-09-12T08:10:41.849Z,41.65
2022-09-12T08:13:10.732Z,46.75
2022-09-12T08:15:37.627Z,39.00
2022-09-12T08:18:04.313Z,39.22
2022-09-12T08:20:30.994Z,39.10
2022-09-12T08:22:57.579Z,37.45
2022-09-12T08:25:26.659Z,34.22
2022-09-12T08:27:53.293Z,42.55
2022-09-12T08:30:20.133Z,39.42
2022-09-12T08:32:47.375Z,33.40
2022-09-12T08:35:15.187Z,36.00
2022-09-12T08:37:43.797Z,37.55
2022-09-12T08:40:17.373Z,36.28
2022-09-12T08:43:15.042Z,35.65
2022-09-12T08:45:53.541Z,35.15
2022-09-12T08:48:20.341Z,31.30
2022-09-12T08:50:49.897Z,31.27
2022-09-12T08:53:21.636Z,33.75
2022-09-12T08:55:59.070Z,31.08
2022-09-12T08:58:27.843Z,26.23
2022-09-12T09:01:09.397Z,26.88
2022-09-12T09:03:54.471Z,29.92
2022-09-12T09:06:54.810Z,26.80
2022-09-12T09:09:54.621Z,30.00
2022-09-12T09:12:55.365Z,26.13
2022-09-12T09:15:41.138Z,26.13
2022-09-12T09:18:12.208Z,25.45
2022-09-12T09:20:57.793Z,29.05
2022-09-12T09:23:30.974Z,25.27
2022-09-12T09:26:18.261Z,29.05
2022-09-12T09:28:47.269Z,26.13
2022-09-12T09:31:22.277Z,24.17
2022-09-12T09:33:51.264Z,25.25
2022-09-12T09:36:20.797Z,30.25
2022-09-12T09:38:55.485Z,26.92
2022-09-12T09:41:46.283Z,23.67
2022-09-12T09:44:13.142Z,23.20
2022-09-12T09:46:39.819Z,24.67
2022-09-12T09:49:07.099Z,17.45
2022-09-12T09:51:39.114Z,17.23
2022-09-12T09:54:37.250Z,18.97
2022-09-12T09:57:05.294Z,20.05
2022-09-12T09:59:34.316Z,18.60
2022-09-12T10:02:08.563Z,23.40
2022-09-12T10:04:42.205Z,17.38
2022-09-12T10:07:19.427Z,19.02
2022-09-12T10:10:11.646Z,17.95
2022-09-12T10:12:39.589Z,17.05
2022-09-12T10:15:23.765Z,18.50
2022-09-12T10:17:51.553Z,24.67
2022-09-12T10:20:41.072Z,15.75
2022-09-12T10:23:37.423Z,19.20
2022-09-12T10:26:10.239Z,22.23
2022-09-12T10:28:40.530Z,19.55
2022-09-12T10:31:15.320Z,17.23
2022-09-12T10:37:06.797Z,15.82
2022-09-12T10:39:34.846Z,16.10
2022-09-12T10:42:02.139Z,16.70
2022-09-12T10:44:30.912Z,12.45
2022-09-12T10:46:58.691Z,17.50
2022-09-12T10:49:51.563Z,15.52
2022-09-12T10:52:23.288Z,16.25
2022-09-12T10:54:51.241Z,17.58
2022-09-12T10:57:17.717Z,17.85
2022-09-12T10:59:53.382Z,14.82
2022-09-12T11:02:52.254Z,13.45
2022-09-12T11:05:28.168Z,11.27
2022-09-12T11:08:23.672Z,16.58
2022-09-12T11:11:10.090Z,14.95
2022-09-12T11:13:44.555Z,15.00
2022-09-12T11:17:27.629Z,14.95
2022-09-12T11:20:30.357Z,13.88
2022-09-12T11:23:29.642Z,13.32
2022-09-12T11:26:18.928Z,12.55
2022-09-12T11:28:56.311Z,17.13
2022-09-12T11:31:31.857Z,14.43
2022-09-12T11:34:00.326Z,12.48
2022-09-12T11:36:34.156Z,11.25
2022-09-12T11:39:21.319Z,12.90
2022-09-12T11:41:51.689Z,11.55
2022-09-12T11:44:22.347Z,12.40
2022-09-12T11:46:51.922Z,17.45
2022-09-12T11:49:35.570Z,11.38
2022-09-12T11:52:24.382Z,10.20
2022-09-12T11:55:03.766Z,11.32
2022-09-12T11:57:40.801Z,13.07
2022-09-12T12:00:20.585Z,12.35
2022-09-12T12:03:02.750Z,12.88
2022-09-12T12:05:35.766Z,14.40
2022-09-12T12:08:05.362Z,13.98
2022-09-12T12:10:40.811Z,10.55
2022-09-12T12:13:19.561Z,10.45
2022-09-12T12:15:48.969Z,9.80
2022-09-12T12:18:29.351Z,11.02
2022-09-12T12:20:57.034Z,11.60
2022-09-12T12:23:34.139Z,11.30
2022-09-12T12:26:03.496Z,9.60
2022-09-12T12:28:52.870Z,15.13
2022-09-12T12:31:19.577Z,13.07
2022-09-12T12:33:46.075Z,13.73
2022-09-12T12:36:38.557Z,10.25
2022-09-12T12:39:53.864Z,15.33
2022-09-12T12:42:32.755Z,9.43
2022-09-12T12:45:20.070Z,11.88
2022-09-12T12:48:05.007Z,13.13
2022-09-12T12:50:34.402Z,10.68
2022-09-12T12:53:07.201Z,13.20
2022-09-12T12:55:38.557Z,11.90
2022-09-12T12:58:07.114Z,10.75
2022-09-12T13:00:35.608Z,9.60
2022-09-12T13:03:06.435Z,16.48
2022-09-12T13:05:48.957Z,12.13
2022-09-12T13:08:18.156Z,9.60
2022-09-12T13:10:58.505Z,11.25
2022-09-12T13:13:32.993Z,11.80
2022-09-12T13:16:00.769Z,7.75
2022-09-12T13:18:53.934Z,12.13
2022-09-12T13:21:22.137Z,10.10
2022-09-12T13:24:02.789Z,13.77
2022-09-12T13:26:41.811Z,9.55
2022-09-12T13:29:25.662Z,9.40
2022-09-12T13:31:56.499Z,11.50
2022-09-12T13:34:33.237Z,9.65
2022-09-12T13:37:35.387Z,9.93
2022-09-12T13:40:18.309Z,9.57
2022-09-12T13:45:28.887Z,7.25
2022-09-12T13:47:58.999Z,9.32
2022-09-12T13:50:33.582Z,11.70
2022-09-12T13:53:42.458Z,9.07
2022-09-12T13:56:16.310Z,9.52
2022-09-12T13:58:53.133Z,10.20
2022-09-12T14:01:20.622Z,8.68
2022-09-12T14:04:14.342Z,10.68
2022-09-12T14:06:50.940Z,11.68
2022-09-12T14:09:26.181Z,9.80
2022-09-12T14:11:53.618Z,9.23
2022-09-12T14:14:33.362Z,10.52
2022-09-12T14:17:00.479Z,10.00
2022-09-12T14:19:29.078Z,11.75
2022-09-12T14:21:57.330Z,8.95
2022-09-12T14:24:24.222Z,11.98
2022-09-12T14:26:52.861Z,12.32
2022-09-12T14:29:19.906Z,11.30
2022-09-12T14:31:46.775Z,10.23
2022-09-12T14:34:17.783Z,9.13
2022-09-12T14:36:46.586Z,11.98
2022-09-12T14:39:19.712Z,9.35
2022-09-12T14:41:46.586Z,8.52
2022-09-12T14:44:24.218Z,8.38
2022-09-12T14:46:52.327Z,10.90
2022-09-12T14:49:31.506Z,9.30
2022-09-12T14:52:00.986Z,9.15
2022-09-12T14:54:28.538Z,8.82
2022-09-12T14:56:56.019Z,7.38
2022-09-12T14:59:36.146Z,8.27
2022-09-12T15:02:17.347Z,10.50
2022-09-12T15:04:47.998Z,6.85
2022-09-12T15:07:32.570Z,9.32
2022-09-12T15:10:03.610Z,9.57
2022-09-12T15:12:32.318Z,11.20
2022-09-12T15:15:07.786Z,7.18
2022-09-12T15:17:35.414Z,8.02
2022-09-12T15:20:02.506Z,8.63
2022-09-12T15:22:30.991Z,10.82
2022-09-12T15:24:58.734Z,9.30
2022-09-12T15:27:26.738Z,10.20
2022-09-12T15:29:54.492Z,11.00
2022-09-12T15:32:26.306Z,9.00
2022-09-12T15:34:53.472Z,8.70
2022-09-12T15:37:21.756Z,8.13
2022-09-12T15:39:49.109Z,8.60
2022-09-12T15:42:17.120Z,7.32
2022-09-12T15:44:43.892Z,7.45
2022-09-12T15:47:13.334Z,7.13
2022-09-12T15:49:40.735Z,8.35
2022-09-12T15:52:15.498Z,9.07
2022-09-12T15:54:43.369Z,10.88
2022-09-12T15:57:10.390Z,7.88
2022-09-12T15:59:38.239Z,8.60
2022-09-12T16:02:05.002Z,9.32
2022-09-12T16:04:31.711Z,9.85
2022-09-12T16:06:58.468Z,6.60
2022-09-12T16:09:25.212Z,9.80
2022-09-12T16:11:52.280Z,10.15
2022-09-12T16:14:23.306Z,7.82
2022-09-12T16:16:59.783Z,9.27
2022-09-12T16:19:26.479Z,10.07
2022-09-12T16:21:53.173Z,8.20
2022-09-12T16:24:19.833Z,9.13
2022-09-12T16:26:46.479Z,14.52
2022-09-12T16:29:14.309Z,9.77
2022-09-12T16:31:41.036Z,10.65
2022-09-12T16:34:07.783Z,7.13
2022-09-12T16:36:34.521Z,11.27
2022-09-12T16:39:01.239Z,8.65
2022-09-12T16:41:28.211Z,8.35
2022-09-12T16:43:55.292Z,10.73
2022-09-12T16:46:28.580Z,12.07
2022-09-12T16:48:57.014Z,8.02
2022-09-12T16:51:27.169Z,8.07
2022-09-12T16:53:55.069Z,9.88
2022-09-12T16:56:22.458Z,9.40
2022-09-12T16:58:49.258Z,9.15
2022-09-12T17:01:23.316Z,10.38
2022-09-12T17:03:57.760Z,11.07
2022-09-12T17:06:25.415Z,11.18
2022-09-12T17:08:53.119Z,10.80
2022-09-12T17:11:25.495Z,10.30
2022-09-12T17:14:04.571Z,11.15
2022-09-12T17:16:33.160Z,10.48
2022-09-12T17:18:59.801Z,12.10
2022-09-12T17:21:26.485Z,8.88
2022-09-12T17:23:53.134Z,10.98
2022-09-12T17:26:20.718Z,8.35
2022-09-12T17:28:48.103Z,9.95
2022-09-12T17:31:15.335Z,10.48
2022-09-12T17:33:42.270Z,10.98
2022-09-12T17:36:16.475Z,11.82
2022-09-12T17:38:44.973Z,11.25
2022-09-12T17:41:17.648Z,14.48
2022-09-12T17:46:20.684Z,7.45
2022-09-12T17:48:55.235Z,10.15
2022-09-12T17:51:24.902Z,9.45
2022-09-12T17:54:18.735Z,10.70
2022-09-12T17:56:48.907Z,13.07
2022-09-12T17:59:19.106Z,10.77
2022-09-12T18:02:04.420Z,12.18
2022-09-12T18:04:31.242Z,9.20
2022-09-12T18:07:00.212Z,12.13
2022-09-12T18:09:27.884Z,11.43
2022-09-12T18:11:54.860Z,13.65
2022-09-12T18:14:21.968Z,11.30
2022-09-12T18:16:49.169Z,13.00
2022-09-12T18:19:16.448Z,12.05
2022-09-12T18:21:43.320Z,10.55
2022-09-12T18:24:10.549Z,11.70
2022-09-12T18:26:37.568Z,11.73
2022-09-12T18:29:04.374Z,12.63
2022-09-12T18:31:31.265Z,13.70
2022-09-12T18:33:59.789Z,12.90
2022-09-12T18:36:27.098Z,22.85
2022-09-12T18:38:53.980Z,14.07
2022-09-12T18:41:24.798Z,13.73
2022-09-12T18:43:59.306Z,14.45
2022-09-12T18:46:27.148Z,14.73
2022-09-12T18:48:57.880Z,14.52
2022-09-12T18:51:33.461Z,15.68
2022-09-12T18:54:13.034Z,15.50
2022-09-12T18:56:43.439Z,11.82
2022-09-12T18:59:12.759Z,15.90
2022-09-12T19:01:39.829Z,14.95
2022-09-12T19:04:07.619Z,13.43
2022-09-12T19:06:39.403Z,13.02
2022-09-12T19:09:08.163Z,16.17
2022-09-12T19:11:37.305Z,13.80
2022-09-12T19:14:05.283Z,20.52
2022-09-12T19:16:32.231Z,17.92
2022-09-12T19:18:59.443Z,11.88
2022-09-12T19:21:29.206Z,12.52
2022-09-12T19:23:58.082Z,14.82
2022-09-12T19:26:24.971Z,16.35
2022-09-12T19:28:52.097Z,12.00
2022-09-12T19:31:20.149Z,17.50
2022-09-12T19:33:47.299Z,17.02
2022-09-12T19:36:41.314Z,15.90
2022-09-12T19:39:04.693Z,13.95
2022-09-12T19:41:31.475Z,12.43
2022-09-12T19:43:59.061Z,25.48
2022-09-12T19:46:26.886Z,12.98
2022-09-12T19:48:54.077Z,17.35
2022-09-12T19:51:22.317Z,17.25
2022-09-12T19:53:50.209Z,14.18
2022-09-12T19:56:17.022Z,15.38
2022-09-12T19:58:45.732Z,14.73
2022-09-12T20:01:29.736Z,16.17
2022-09-12T20:03:57.501Z,15.25
2022-09-12T20:06:24.863Z,15.25
2022-09-12T20:08:51.496Z,15.95
2022-09-12T20:11:19.840Z,11.98
2022-09-12T20:13:47.052Z,16.30
2022-09-12T20:16:22.733Z,13.20
2022-09-12T20:18:54.919Z,13.93
2022-09-12T20:21:25.239Z,12.82
2022-09-12T20:23:52.259Z,17.05
2022-09-12T20:26:20.203Z,12.95
2022-09-12T20:28:47.521Z,14.30
2022-09-12T20:31:15.462Z,15.88
2022-09-12T20:33:42.375Z,12.10
2022-09-12T20:36:14.915Z,20.95
2022-09-12T20:38:46.253Z,16.25
2022-09-12T20:41:12.923Z,13.57
2022-09-12T20:43:40.063Z,14.27
2022-09-12T20:46:10.998Z,11.85
2022-09-12T20:48:38.365Z,13.45
2022-09-12T20:51:05.714Z,15.25
2022-09-12T20:53:35.076Z,14.88
2022-09-12T20:56:02.962Z,16.13
2022-09-12T20:58:29.673Z,16.48
2022-09-12T21:00:56.507Z,13.93
2022-09-12T21:03:23.241Z,16.42
2022-09-12T21:05:49.928Z,16.77
2022-09-12T21:08:16.789Z,15.77
2022-09-12T21:10:44.446Z,13.65
2022-09-12T21:13:12.208Z,12.52
2022-09-12T21:15:39.631Z,16.67
2022-09-12T21:18:06.985Z,16.15
2022-09-12T21:20:34.042Z,21.00
2022-09-12T21:23:00.744Z,15.85
2022-09-12T21:25:28.987Z,13.18
2022-09-12T21:27:55.689Z,14.15
2022-09-12T21:30:22.510Z,14.88
2022-09-12T21:32:49.211Z,14.93
2022-09-12T21:35:16.008Z,16.00
2022-09-12T21:37:42.688Z,15.85
2022-09-12T21:40:09.652Z,16.80
2022-09-12T21:42:36.873Z,16.25
2022-09-12T21:45:03.852Z,15.00
2022-09-12T21:47:30.893Z,17.73
2022-09-12T21:49:58.362Z,15.38
2022-09-12T21:52:25.175Z,13.65
2022-09-12T21:54:51.837Z,15.93
2022-09-12T21:57:18.472Z,17.02
2022-09-12T21:59:45.202Z,16.17
2022-09-12T22:02:12.353Z,13.82
2022-09-12T22:04:39.125Z,17.35
2022-09-12T22:07:05.963Z,14.65
2022-09-12T22:09:34.283Z,16.83
2022-09-12T22:12:02.172Z,17.40
2022-09-12T22:14:29.401Z,18.10
2022-09-12T22:16:56.695Z,16.63
2022-09-12T22:19:23.485Z,16.27
2022-09-12T22:22:08.794Z,14.68
2022-09-12T22:24:35.464Z,19.80
2022-09-12T22:27:03.998Z,17.50
2022-09-12T22:29:30.982Z,15.27
2022-09-12T22:31:59.025Z,21.92
2022-09-12T22:34:26.599Z,16.63
2022-09-12T22:36:53.369Z,16.95
2022-09-12T22:39:20.039Z,18.75
2022-09-12T22:41:46.744Z,16.05
2022-09-12T22:44:13.505Z,18.60
2022-09-12T22:46:40.445Z,22.17
2022-09-12T22:49:07.421Z,19.52
2022-09-12T22:51:34.155Z,16.65
2022-09-12T22:54:00.893Z,17.55
2022-09-12T22:56:27.577Z,19.17
2022-09-12T22:58:54.345Z,14.25
2022-09-12T23:01:21.118Z,16.60
2022-09-12T23:03:47.934Z,17.48
2022-09-12T23:06:14.734Z,15.82
2022-09-12T23:08:41.582Z,18.48
2022-09-12T23:11:12.822Z,15.93
2022-09-12T23:13:42.079Z,15.82
2022-09-12T23:16:11.958Z,16.40
2022-09-12T23:18:39.152Z,17.60
2022-09-12T23:21:07.833Z,16.95
2022-09-12T23:23:35.415Z,20.73
2022-09-12T23:26:06.479Z,18.67
2022-09-12T23:28:34.637Z,18.63
2022-09-12T23:31:01.813Z,18.45
2022-09-12T23:33:29.604Z,14.88
2022-09-12T23:36:03.391Z,14.50
2022-09-12T23:38:30.713Z,17.63
2022-09-12T23:40:58.106Z,19.55
2022-09-12T23:43:25.050Z,16.67
2022-09-12T23:45:51.761Z,16.50
2022-09-12T23:48:18.710Z,21.92
2022-09-12T23:50:46.627Z,16.65
2022-09-12T23:53:14.739Z,18.52
2022-09-12T23:55:42.149Z,18.65
2022-09-12T23:58:09.110Z,17.00
